Terminal Aerodrome Forecast
Issued by NWS Wakefield, VA

Home | Current Version | Previous Version | Text Only | Print | Product List | Glossary On
Versions: 1 2 3 4 5 6 7 8 9 10 11 12 13 14 15
000
FTUS41 KAKQ 272337
TAFSBY
TAF
KSBY 272337Z 2800/2824 16005KT P6SM SCT060 BKN250
     FM280800 00000KT 4SM BR SCT001
     FM281300 19003KT P6SM SCT045=

USA.gov is the U.S. government's official web portal to all federal, state and local government web resources and services.